Time;durP1;ratioP1;P1;durP2;ratioP2;P2;SDS_P1;SDS_P2;PMS_P1;PMS_P2;Temp;Humidity;BMP_temperature;BMP_pressure;BME280_temperature;BME280_humidity;BME280_pressure;Samples;Min_cycle;Max_cycle;Signal;HPM_P1;HPM_P2
2022/01/12 00:00:25;;;;;;;151.82;41.70;;;3.40;99.90;;;;;;6157116;23;20329;-78
2022/01/12 00:02:51;;;;;;;154.23;41.30;;;3.40;99.90;;;;;;6184391;23;20017;-77
2022/01/12 00:05:18;;;;;;;128.10;39.70;;;3.40;99.90;;;;;;6184413;23;20112;-79
2022/01/12 00:07:47;;;;;;;143.93;40.45;;;3.40;99.90;;;;;;6183359;23;20009;-78
2022/01/12 00:10:13;;;;;;;137.75;41.47;;;3.40;99.90;;;;;;6157085;23;20012;-78
2022/01/12 00:12:39;;;;;;;159.35;44.15;;;3.40;99.90;;;;;;6159116;23;20351;-78
2022/01/12 00:15:05;;;;;;;173.25;42.70;;;3.40;99.90;;;;;;6210517;23;20020;-78
2022/01/12 00:17:31;;;;;;;153.13;42.67;;;3.40;99.90;;;;;;6183531;23;20115;-78
2022/01/12 00:19:56;;;;;;;177.10;43.40;;;3.40;99.90;;;;;;6160265;23;20070;-78
2022/01/12 00:22:22;;;;;;;204.57;44.88;;;3.40;99.90;;;;;;6184500;23;20645;-77
2022/01/12 00:33:11;;;;;;;187.73;44.08;;;3.40;99.90;;;;;;6184505;23;20021;-78
2022/01/12 00:35:42;;;;;;;179.85;44.42;;;3.50;99.90;;;;;;6181191;23;20023;-77
2022/01/12 00:38:09;;;;;;;153.98;43.10;;;3.50;99.90;;;;;;6183543;23;20329;-78
2022/01/12 00:40:40;;;;;;;195.90;43.80;;;3.50;99.90;;;;;;6182985;23;20019;-78
2022/01/12 00:43:07;;;;;;;194.27;44.03;;;3.50;99.90;;;;;;6182102;23;20122;-77
2022/01/12 00:45:34;;;;;;;187.48;44.72;;;3.50;99.90;;;;;;6180863;23;20449;-78
2022/01/12 00:47:59;;;;;;;194.40;45.35;;;3.40;99.90;;;;;;6159430;23;20013;-78
2022/01/12 00:50:25;;;;;;;275.52;46.55;;;3.50;99.90;;;;;;6184136;23;20104;-78
2022/01/12 00:52:53;;;;;;;235.90;45.60;;;3.70;99.90;;;;;;6159063;23;20063;-78
2022/01/12 00:55:18;;;;;;;234.40;47.72;;;3.50;99.90;;;;;;6157869;23;20044;-78
2022/01/12 00:57:45;;;;;;;204.02;45.35;;;3.50;99.90;;;;;;6183981;23;20044;-78
2022/01/12 01:00:12;;;;;;;194.90;44.25;;;3.50;99.90;;;;;;6157393;23;20540;-78
2022/01/12 01:02:37;;;;;;;361.88;49.55;;;3.50;99.90;;;;;;6182646;23;20013;-78
2022/01/12 01:05:04;;;;;;;210.35;46.55;;;3.50;99.90;;;;;;6183644;23;20357;-78
2022/01/12 01:07:29;;;;;;;179.80;46.40;;;3.60;99.90;;;;;;6158228;23;20079;-78
2022/01/12 01:10:04;;;;;;;194.40;46.92;;;3.50;99.90;;;;;;6157675;23;20009;-78
2022/01/12 01:12:31;;;;;;;371.73;49.53;;;3.60;99.90;;;;;;6184866;23;20394;-78
2022/01/12 01:15:04;;;;;;;337.63;48.35;;;3.60;99.90;;;;;;6185287;23;20071;-78
2022/01/12 01:25:50;;;;;;;273.60;46.83;;;3.60;99.90;;;;;;6182199;23;20095;-77
2022/01/12 01:28:17;;;;;;;264.77;45.60;;;3.60;99.90;;;;;;6181586;23;20016;-78
2022/01/12 01:30:45;;;;;;;342.58;48.88;;;3.60;99.90;;;;;;6183519;23;20009;-78
2022/01/12 01:33:15;;;;;;;466.48;50.65;;;3.60;99.90;;;;;;6184396;23;20012;-77
2022/01/12 01:35:46;;;;;;;276.90;46.75;;;3.70;99.90;;;;;;6185012;23;20088;-77
2022/01/12 01:38:11;;;;;;;395.13;47.63;;;3.70;99.90;;;;;;6159774;23;20380;-77
2022/01/12 01:40:42;;;;;;;496.48;48.90;;;3.70;99.90;;;;;;6185617;23;20048;-78
2022/01/12 01:53:57;;;;;;;388.08;44.50;;;3.70;99.90;;;;;;6187005;23;20013;-77
2022/01/12 01:56:24;;;;;;;348.52;43.50;;;3.70;99.90;;;;;;6186554;23;20416;-79
2022/01/12 01:58:49;;;;;;;317.27;42.22;;;3.80;99.90;;;;;;6162026;23;20056;-78
2022/01/12 02:01:15;;;;;;;258.92;40.47;;;3.80;99.90;;;;;;6187855;23;20024;-79
2022/01/12 02:03:43;;;;;;;339.48;44.13;;;3.90;99.90;;;;;;6187785;23;20377;-78
2022/01/12 02:06:10;;;;;;;238.45;41.25;;;3.90;99.90;;;;;;6188445;23;20044;-79
2022/01/12 02:08:36;;;;;;;248.82;41.88;;;3.80;99.90;;;;;;6187001;23;20115;-79
2022/01/12 02:11:02;;;;;;;211.45;38.85;;;3.80;99.90;;;;;;6160500;23;20048;-79
2022/01/12 02:13:28;;;;;;;273.02;41.22;;;3.90;99.90;;;;;;6187454;23;20067;-79
2022/01/12 02:15:55;;;;;;;203.68;40.35;;;4.00;99.90;;;;;;6162273;23;20440;-79
2022/01/12 02:41:06;;;;;;;165.30;37.08;;;4.00;99.90;;;;;;6096330;23;20073;-79
2022/01/12 02:53:48;;;;;;;174.45;37.83;;;4.00;99.90;;;;;;6095591;23;20053;-79
2022/01/12 02:56:29;;;;;;;182.90;36.28;;;4.00;99.90;;;;;;6096324;23;20241;-80
2022/01/12 02:58:58;;;;;;;163.00;35.80;;;4.00;99.90;;;;;;6072595;23;20096;-80
2022/01/12 03:03:59;;;;;;;181.40;36.97;;;3.90;99.90;;;;;;6095715;23;20025;-79
2022/01/12 03:06:30;;;;;;;170.18;36.63;;;3.80;99.90;;;;;;6097218;23;20101;-79
2022/01/12 03:08:57;;;;;;;166.68;35.45;;;3.90;99.90;;;;;;6110985;23;20009;-80
2022/01/12 03:11:23;;;;;;;268.67;37.33;;;3.80;99.90;;;;;;6187680;23;20017;-80
2022/01/12 03:13:51;;;;;;;191.45;37.78;;;3.70;99.90;;;;;;6187290;23;20008;-79
2022/01/12 03:16:19;;;;;;;162.73;34.38;;;3.70;99.90;;;;;;6187393;23;20333;-80
2022/01/12 03:18:49;;;;;;;542.72;39.28;;;3.60;99.90;;;;;;6161021;23;20013;-80
2022/01/12 03:21:17;;;;;;;704.78;42.10;;;3.50;99.90;;;;;;6162050;23;20231;-80
2022/01/12 03:23:43;;;;;;;876.20;44.78;;;3.40;99.90;;;;;;6161494;23;20023;-80
2022/01/12 03:26:09;;;;;;;715.45;39.55;;;3.40;99.90;;;;;;6186413;23;20021;-79
2022/01/12 03:28:37;;;;;;;565.10;37.42;;;3.40;99.90;;;;;;6186070;23;20017;-80
2022/01/12 03:38:45;;;;;;;267.25;27.52;;;3.10;99.90;;;;;;6204939;23;20020;-79
2022/01/12 03:41:12;;;;;;;162.82;25.98;;;3.00;99.90;;;;;;6178070;23;20094;-80
2022/01/12 03:43:37;;;;;;;627.28;34.05;;;3.00;99.90;;;;;;6209188;23;20391;-80
2022/01/12 03:46:03;;;;;;;534.00;31.20;;;2.90;99.90;;;;;;6185214;23;20034;-80
2022/01/12 03:48:29;;;;;;;509.15;30.90;;;2.90;99.90;;;;;;6171100;23;20403;-80
2022/01/12 03:50:56;;;;;;;414.90;28.88;;;2.80;99.90;;;;;;6185677;23;20059;-80
2022/01/12 03:53:22;;;;;;;206.27;25.95;;;2.90;99.90;;;;;;6186247;23;20082;-80
2022/01/12 03:55:48;;;;;;;234.80;25.58;;;2.70;99.90;;;;;;6185365;23;20012;-80
2022/01/12 03:58:14;;;;;;;470.60;30.67;;;2.70;99.90;;;;;;6161077;23;20052;-80
2022/01/12 04:00:40;;;;;;;200.00;24.48;;;2.70;99.90;;;;;;6162082;23;20078;-79
2022/01/12 04:03:07;;;;;;;64.43;20.40;;;2.60;99.90;;;;;;6185832;23;20020;-79
2022/01/12 04:08:19;;;;;;;198.80;22.85;;;2.60;99.90;;;;;;6185622;23;20761;-80
2022/01/12 04:10:46;;;;;;;264.67;25.00;;;2.50;99.90;;;;;;6160669;23;20449;-80
2022/01/12 04:13:11;;;;;;;78.15;18.92;;;2.50;99.90;;;;;;6186097;23;20009;-80
2022/01/12 04:15:37;;;;;;;161.55;22.55;;;2.50;99.90;;;;;;6161360;23;20376;-80
2022/01/12 04:18:03;;;;;;;280.33;23.73;;;2.40;99.90;;;;;;6185097;23;20009;-80
2022/01/12 04:20:28;;;;;;;328.05;24.77;;;2.70;99.90;;;;;;6161258;23;20051;-80
2022/01/12 04:25:38;;;;;;;433.98;24.95;;;2.30;99.90;;;;;;6186433;23;20480;-80
2022/01/12 04:28:04;;;;;;;248.35;20.40;;;2.30;99.90;;;;;;6186954;23;20070;-80
2022/01/12 04:30:29;;;;;;;439.05;21.83;;;2.20;99.90;;;;;;6186461;23;20016;-80
2022/01/12 04:32:55;;;;;;;620.88;24.70;;;2.20;99.90;;;;;;6185488;23;20333;-80
2022/01/12 04:35:24;;;;;;;520.00;24.10;;;2.20;99.90;;;;;;6161344;23;20018;-80
2022/01/12 04:37:51;;;;;;;500.13;21.63;;;2.10;99.90;;;;;;6185669;23;20092;-80
2022/01/12 04:40:17;;;;;;;477.55;20.92;;;2.00;99.90;;;;;;6160452;23;20044;-80
2022/01/12 04:42:42;;;;;;;123.28;17.58;;;2.00;99.90;;;;;;6161027;23;20039;-80
2022/01/12 04:50:43;;;;;;;75.80;17.38;;;1.80;99.90;;;;;;6095904;23;20044;-80
2022/01/12 04:53:10;;;;;;;384.55;22.83;;;1.90;99.90;;;;;;6095919;23;20016;-80
2022/01/12 04:55:35;;;;;;;389.70;22.67;;;1.80;99.90;;;;;;6095297;23;20502;-80
2022/01/12 04:58:01;;;;;;;342.48;21.80;;;1.70;99.90;;;;;;6095725;23;20145;-80
2022/01/12 05:00:29;;;;;;;119.13;19.65;;;1.60;99.90;;;;;;6096538;23;20112;-80
2022/01/12 05:13:39;;;;;;;275.60;20.88;;;1.60;99.90;;;;;;6096965;23;20049;-80
2022/01/12 05:16:06;;;;;;;497.90;25.42;;;1.50;99.90;;;;;;6096634;23;20096;-80
2022/01/12 05:18:34;;;;;;;90.53;16.90;;;1.60;99.90;;;;;;6095872;23;20105;-80
2022/01/12 05:21:01;;;;;;;355.65;21.15;;;1.50;99.90;;;;;;6096366;23;20024;-80
2022/01/12 05:23:27;;;;;;;264.17;20.40;;;1.50;99.90;;;;;;6105001;23;20339;-80
2022/01/12 05:25:53;;;;;;;185.07;18.55;;;1.60;99.90;;;;;;6162757;23;20021;-79
2022/01/12 05:28:21;;;;;;;207.32;17.83;;;1.50;99.90;;;;;;6163301;23;20449;-80
2022/01/12 05:30:47;;;;;;;206.10;17.95;;;1.50;99.90;;;;;;6162310;23;20012;-80
2022/01/12 05:33:14;;;;;;;377.33;23.80;;;1.50;99.90;;;;;;6162318;23;20499;-80
2022/01/12 05:35:41;;;;;;;339.60;18.92;;;1.50;99.90;;;;;;6187425;23;20017;-80
2022/01/12 05:38:12;;;;;;;296.25;19.88;;;1.50;99.90;;;;;;6187299;23;20013;-80
2022/01/12 05:40:39;;;;;;;252.00;18.75;;;1.50;99.90;;;;;;6186477;23;20012;-80
2022/01/12 05:43:05;;;;;;;319.58;21.48;;;1.40;99.90;;;;;;6187113;23;20310;-79
2022/01/12 05:45:33;;;;;;;135.90;16.98;;;1.40;99.90;;;;;;6163855;23;20023;-80
2022/01/12 05:50:27;;;;;;;284.40;21.10;;;1.30;99.90;;;;;;6189031;23;20446;-81
2022/01/12 05:52:54;;;;;;;151.57;17.00;;;1.30;99.90;;;;;;6165265;23;20017;-80
2022/01/12 05:55:20;;;;;;;159.93;16.30;;;1.20;99.90;;;;;;6164751;23;20115;-80
2022/01/12 05:57:47;;;;;;;155.38;16.83;;;1.10;99.90;;;;;;6164538;23;20012;-79
2022/01/12 06:00:15;;;;;;;52.47;13.93;;;1.20;99.90;;;;;;6189731;23;20032;-80
2022/01/12 06:02:41;;;;;;;50.40;14.05;;;1.20;99.90;;;;;;6186892;23;20330;-80
2022/01/12 06:05:08;;;;;;;119.00;15.43;;;1.20;99.90;;;;;;6187211;23;20055;-79
2022/01/12 06:07:35;;;;;;;147.98;15.48;;;1.10;99.90;;;;;;6186793;23;20099;-80
2022/01/12 06:10:01;;;;;;;80.10;15.02;;;1.10;99.90;;;;;;6161729;23;20079;-79
2022/01/12 06:12:27;;;;;;;88.50;14.25;;;1.10;99.90;;;;;;6138341;23;20019;-81
2022/01/12 06:14:53;;;;;;;17.85;10.90;;;0.90;99.90;;;;;;6162525;23;20016;-79
2022/01/12 06:17:19;;;;;;;154.20;16.08;;;1.00;99.90;;;;;;6185136;23;20095;-78
2022/01/12 06:19:45;;;;;;;154.32;15.25;;;1.00;99.90;;;;;;6184697;23;20098;-78
2022/01/12 06:22:10;;;;;;;108.80;15.38;;;0.90;99.90;;;;;;6185960;23;20020;-79
2022/01/12 06:24:37;;;;;;;68.00;14.77;;;1.00;99.90;;;;;;6161113;23;20032;-78
2022/01/12 06:27:04;;;;;;;92.30;15.65;;;1.00;99.90;;;;;;6186539;23;20066;-79
2022/01/12 06:29:49;;;;;;;143.90;15.40;;;0.90;99.90;;;;;;6187062;23;20005;-79
2022/01/12 06:32:15;;;;;;;95.65;15.63;;;0.90;99.90;;;;;;6186284;23;20084;-78
2022/01/12 06:34:41;;;;;;;158.38;17.38;;;0.90;99.90;;;;;;6186662;23;20044;-78
2022/01/12 06:37:06;;;;;;;306.33;18.02;;;0.90;99.90;;;;;;6186866;23;20376;-79
2022/01/12 06:39:33;;;;;;;280.50;18.40;;;1.30;99.90;;;;;;6161496;23;20536;-79
2022/01/12 06:41:59;;;;;;;240.40;18.35;;;1.00;99.90;;;;;;6186868;23;20017;-78
2022/01/12 06:44:25;;;;;;;316.55;21.08;;;1.00;99.90;;;;;;6186720;23;20009;-79
2022/01/12 06:46:53;;;;;;;79.22;15.35;;;1.00;99.90;;;;;;6187241;23;20005;-79
2022/01/12 06:49:19;;;;;;;145.55;17.05;;;0.90;99.90;;;;;;6161461;23;20012;-79
2022/01/12 06:51:46;;;;;;;374.52;21.75;;;1.00;99.90;;;;;;6186552;23;20360;-79
2022/01/12 06:54:13;;;;;;;196.07;17.33;;;0.90;99.90;;;;;;6185681;23;20013;-79
2022/01/12 06:56:39;;;;;;;168.77;16.80;;;1.00;99.90;;;;;;6187040;23;20119;-79
2022/01/12 06:59:05;;;;;;;149.63;16.48;;;1.00;99.90;;;;;;6186084;23;20353;-79
2022/01/12 07:01:31;;;;;;;219.35;19.02;;;1.00;99.90;;;;;;6187126;23;20080;-79
2022/01/12 07:03:58;;;;;;;325.88;19.20;;;1.00;99.90;;;;;;6185702;23;20012;-78
2022/01/12 07:06:24;;;;;;;252.02;18.70;;;1.00;99.90;;;;;;6186851;23;20388;-78
2022/01/12 07:08:51;;;;;;;343.27;20.55;;;1.10;99.90;;;;;;6160788;23;20013;-77
2022/01/12 07:11:16;;;;;;;184.13;18.20;;;1.10;99.90;;;;;;6186004;23;20333;-77
2022/01/12 07:13:43;;;;;;;198.43;20.42;;;1.10;99.90;;;;;;6161492;23;20020;-78
2022/01/12 07:16:09;;;;;;;246.25;20.05;;;1.30;99.90;;;;;;6161574;23;20013;-79
2022/01/12 07:18:34;;;;;;;236.75;27.63;;;1.00;99.90;;;;;;6185930;23;20332;-78
2022/01/12 07:21:00;;;;;;;73.78;16.63;;;1.00;99.90;;;;;;6186199;23;20023;-78
2022/01/12 07:23:27;;;;;;;98.53;15.50;;;1.00;99.90;;;;;;6160432;23;20016;-78
2022/01/12 07:25:53;;;;;;;139.48;17.38;;;1.00;99.90;;;;;;6185741;23;20096;-78
2022/01/12 07:28:19;;;;;;;117.25;18.02;;;1.00;99.90;;;;;;6186849;23;20451;-78
2022/01/12 07:30:48;;;;;;;113.95;16.30;;;0.90;99.90;;;;;;6186834;23;20325;-79
2022/01/12 07:33:15;;;;;;;112.13;15.18;;;1.00;99.90;;;;;;6160772;23;20467;-79
2022/01/12 07:35:42;;;;;;;163.65;17.70;;;0.90;99.90;;;;;;6185190;23;20016;-79
2022/01/12 07:38:08;;;;;;;118.10;15.38;;;0.90;99.90;;;;;;6160943;23;20452;-79
2022/01/12 07:40:35;;;;;;;86.53;14.45;;;1.30;99.90;;;;;;6186744;23;20032;-80
2022/01/12 07:43:03;;;;;;;181.10;16.35;;;0.90;99.90;;;;;;6161140;23;20024;-80
2022/01/12 07:45:28;;;;;;;93.30;13.68;;;0.90;99.90;;;;;;6185750;23;20445;-79
2022/01/12 07:47:54;;;;;;;129.48;12.60;;;0.90;99.90;;;;;;6160829;23;20020;-79
2022/01/12 07:50:21;;;;;;;225.50;15.52;;;0.90;99.90;;;;;;6161199;23;20035;-79
2022/01/12 07:52:46;;;;;;;171.85;12.43;;;0.90;99.90;;;;;;6185008;23;20707;-78
2022/01/12 07:55:12;;;;;;;230.68;14.73;;;0.90;99.90;;;;;;6184432;23;20031;-79
2022/01/12 07:57:38;;;;;;;126.18;12.90;;;0.80;99.90;;;;;;6189419;23;20012;-80
2022/01/12 08:00:06;;;;;;;144.48;14.90;;;0.80;99.90;;;;;;6161855;23;20029;-80
2022/01/12 08:02:31;;;;;;;157.73;12.48;;;0.80;99.90;;;;;;6188579;23;20020;-80
2022/01/12 08:04:57;;;;;;;92.20;11.90;;;0.80;99.90;;;;;;6188121;23;20432;-80
2022/01/12 08:07:23;;;;;;;119.00;13.25;;;0.80;99.90;;;;;;6185971;23;20016;-78
2022/01/12 08:09:48;;;;;;;76.93;12.02;;;0.80;99.90;;;;;;6186743;23;20313;-78
2022/01/12 08:12:14;;;;;;;53.17;11.90;;;0.80;99.90;;;;;;6160840;23;20016;-79
2022/01/12 08:14:40;;;;;;;101.68;11.60;;;1.10;99.90;;;;;;6185402;23;20024;-79
2022/01/12 08:17:06;;;;;;;89.80;12.85;;;0.90;99.90;;;;;;6158593;23;20285;-78
2022/01/12 08:19:35;;;;;;;102.00;13.25;;;0.90;99.90;;;;;;6159557;23;20020;-80
2022/01/12 08:22:02;;;;;;;138.75;13.45;;;0.90;99.90;;;;;;6158645;23;20035;-79
2022/01/12 08:24:28;;;;;;;51.72;10.70;;;0.90;99.90;;;;;;6158699;23;20067;-79
2022/01/12 08:26:53;;;;;;;68.05;11.57;;;1.20;99.90;;;;;;6186568;23;20409;-78
2022/01/12 08:29:19;;;;;;;43.45;10.50;;;1.10;99.90;;;;;;6186277;23;20261;-76
2022/01/12 08:31:45;;;;;;;70.28;11.73;;;1.00;99.90;;;;;;6186127;23;20378;-76
2022/01/12 08:34:12;;;;;;;44.03;10.70;;;1.10;99.90;;;;;;6185806;23;20014;-76
2022/01/12 08:36:38;;;;;;;31.38;10.02;;;1.00;99.90;;;;;;6186157;23;20030;-77
2022/01/12 08:39:07;;;;;;;43.40;10.40;;;1.10;99.90;;;;;;6160527;23;20012;-75
2022/01/12 08:41:33;;;;;;;43.45;9.07;;;1.10;99.90;;;;;;6186422;23;20309;-75
2022/01/12 08:43:59;;;;;;;44.53;10.27;;;1.00;99.90;;;;;;6186385;23;20013;-76
2022/01/12 08:46:24;;;;;;;78.90;10.82;;;1.00;99.90;;;;;;6186182;23;20027;-77
2022/01/12 08:48:50;;;;;;;64.22;9.85;;;1.00;99.90;;;;;;6159827;23;20092;-76
2022/01/12 08:51:16;;;;;;;45.95;9.77;;;1.00;99.90;;;;;;6160912;23;20075;-79
2022/01/12 08:53:58;;;;;;;34.88;8.65;;;1.10;99.90;;;;;;6160229;23;20078;-79
2022/01/12 08:56:24;;;;;;;57.58;9.20;;;1.10;99.90;;;;;;6160605;23;20017;-79
2022/01/12 08:58:50;;;;;;;109.93;9.32;;;1.10;99.90;;;;;;6186540;23;20092;-80
2022/01/12 09:01:16;;;;;;;104.40;9.43;;;1.10;99.90;;;;;;6187742;23;20047;-79
2022/01/12 09:03:42;;;;;;;125.72;10.30;;;1.10;99.90;;;;;;6186370;23;20348;-80
2022/01/12 09:06:08;;;;;;;80.05;9.82;;;1.20;99.90;;;;;;6187228;23;20397;-80
2022/01/12 09:08:37;;;;;;;105.03;10.38;;;1.20;99.90;;;;;;6161581;23;20039;-80
2022/01/12 09:11:03;;;;;;;83.88;8.98;;;1.20;99.90;;;;;;6163000;23;20137;-80
2022/01/12 09:13:29;;;;;;;64.03;8.43;;;1.30;99.90;;;;;;6186219;23;20055;-80
2022/01/12 09:15:55;;;;;;;72.28;9.25;;;1.60;99.90;;;;;;6187165;23;20020;-80
2022/01/12 09:18:21;;;;;;;68.75;8.55;;;1.40;99.90;;;;;;6185898;23;20020;-80
2022/01/12 09:20:49;;;;;;;90.22;9.25;;;1.30;99.90;;;;;;6161490;23;20318;-79
2022/01/12 09:23:15;;;;;;;89.82;9.18;;;1.40;99.90;;;;;;6213299;23;20504;-79
2022/01/12 09:25:41;;;;;;;88.30;9.43;;;1.40;99.90;;;;;;6185132;23;20142;-79
2022/01/12 09:28:08;;;;;;;87.28;9.95;;;1.50;99.90;;;;;;6159465;23;20090;-80
2022/01/12 09:30:34;;;;;;;65.35;8.98;;;1.50;99.90;;;;;;6160107;23;20009;-81
2022/01/12 09:33:00;;;;;;;54.92;8.40;;;1.50;99.90;;;;;;6159541;23;20089;-77
2022/01/12 09:35:27;;;;;;;51.97;7.90;;;1.60;99.90;;;;;;6185214;23;20048;-77
2022/01/12 09:37:53;;;;;;;81.85;8.52;;;1.60;99.90;;;;;;6161003;23;20023;-77
2022/01/12 09:40:19;;;;;;;77.78;8.00;;;1.70;99.90;;;;;;6185890;23;20013;-77
2022/01/12 09:42:47;;;;;;;67.78;8.23;;;1.70;99.90;;;;;;6160513;23;20016;-77
2022/01/12 09:45:18;;;;;;;84.82;7.70;;;1.70;99.90;;;;;;6183558;23;20020;-77
2022/01/12 09:47:47;;;;;;;86.30;7.63;;;1.80;99.90;;;;;;6184398;23;20016;-78
2022/01/12 09:50:16;;;;;;;63.85;7.55;;;1.80;99.90;;;;;;6159422;23;20017;-78
2022/01/12 09:52:42;;;;;;;58.08;7.10;;;1.90;99.90;;;;;;6135020;23;20016;-77
2022/01/12 09:55:08;;;;;;;109.97;8.15;;;2.00;99.90;;;;;;6185310;23;20306;-77
2022/01/12 09:57:34;;;;;;;94.07;7.03;;;2.00;99.90;;;;;;6161989;23;20055;-77
2022/01/12 10:00:00;;;;;;;146.60;8.63;;;2.00;99.90;;;;;;6158875;23;20020;-79
2022/01/12 10:02:25;;;;;;;106.18;7.82;;;2.10;99.90;;;;;;6158526;23;20020;-79
2022/01/12 10:05:05;;;;;;;111.20;8.02;;;2.10;99.90;;;;;;6185620;23;20020;-78
2022/01/12 10:07:32;;;;;;;116.55;8.05;;;2.20;99.90;;;;;;6184303;23;20051;-78
2022/01/12 10:10:09;;;;;;;124.72;8.32;;;2.30;99.90;;;;;;6185203;23;20013;-78
2022/01/12 10:12:35;;;;;;;109.85;7.35;;;2.30;99.90;;;;;;6184270;23;20091;-78
2022/01/12 10:15:11;;;;;;;199.65;8.43;;;2.50;99.90;;;;;;6186534;23;20448;-79
2022/01/12 10:17:44;;;;;;;200.70;9.02;;;2.50;99.90;;;;;;6160849;23;20016;-80
2022/01/12 10:20:19;;;;;;;211.10;10.43;;;2.60;99.90;;;;;;6161777;23;20028;-78
2022/01/12 10:23:07;;;;;;;132.75;7.60;;;2.70;99.90;;;;;;6186335;23;20013;-79
2022/01/12 10:25:34;;;;;;;162.30;9.13;;;2.80;99.90;;;;;;6161431;23;20020;-79
2022/01/12 10:28:15;;;;;;;110.80;7.88;;;2.80;99.90;;;;;;6186002;23;20095;-79
2022/01/12 10:30:51;;;;;;;140.32;8.85;;;3.00;99.90;;;;;;6186123;23;20017;-78
2022/01/12 10:33:16;;;;;;;116.30;7.85;;;3.10;99.90;;;;;;6186324;23;20023;-78
2022/01/12 10:35:42;;;;;;;190.57;8.30;;;3.20;99.90;;;;;;6187130;23;20020;-79
2022/01/12 10:38:17;;;;;;;118.57;6.97;;;3.20;99.90;;;;;;6186732;23;20099;-79
2022/01/12 10:40:53;;;;;;;60.47;7.38;;;3.30;99.90;;;;;;6162090;23;20135;-79
2022/01/12 10:43:26;;;;;;;134.93;8.45;;;3.30;99.90;;;;;;6162298;23;20017;-79
2022/01/12 10:45:51;;;;;;;105.85;8.43;;;3.60;99.90;;;;;;6187703;23;20046;-79
2022/01/12 10:48:17;;;;;;;155.05;9.02;;;3.50;99.90;;;;;;6187033;23;20024;-78
2022/01/12 10:50:57;;;;;;;79.30;7.63;;;3.50;99.90;;;;;;6161762;23;20017;-78
2022/01/12 10:53:31;;;;;;;106.03;9.10;;;3.60;99.90;;;;;;6186903;23;20013;-78
2022/01/12 10:56:04;;;;;;;94.07;7.50;;;3.60;99.90;;;;;;6186329;23;20096;-77
2022/01/12 10:58:30;;;;;;;67.28;6.78;;;3.70;99.90;;;;;;6162383;23;20394;-77
2022/01/12 11:00:57;;;;;;;96.88;7.80;;;3.70;99.90;;;;;;6188397;23;20028;-78
2022/01/12 11:03:23;;;;;;;116.03;6.90;;;3.70;99.90;;;;;;6186680;23;20321;-76
2022/01/12 11:05:50;;;;;;;113.15;8.23;;;3.80;99.90;;;;;;6159660;23;20016;-76
2022/01/12 11:08:18;;;;;;;73.63;7.93;;;3.80;99.90;;;;;;6186670;23;20009;-75
2022/01/12 11:10:45;;;;;;;78.72;7.50;;;3.80;99.90;;;;;;6160151;23;20013;-76
2022/01/12 11:13:12;;;;;;;87.68;8.05;;;4.00;99.90;;;;;;6186119;23;20027;-76
2022/01/12 11:15:38;;;;;;;79.50;7.88;;;4.00;99.90;;;;;;6161871;23;20017;-77
2022/01/12 11:18:04;;;;;;;58.08;7.68;;;3.90;99.90;;;;;;6185667;23;20329;-75
2022/01/12 11:20:30;;;;;;;54.45;8.00;;;4.00;99.90;;;;;;6185440;23;20021;-79
2022/01/12 11:23:06;;;;;;;52.17;7.43;;;4.00;99.90;;;;;;6184035;23;20422;-79
2022/01/12 11:25:39;;;;;;;98.22;8.45;;;4.10;99.90;;;;;;6161442;23;20021;-80
2022/01/12 11:28:20;;;;;;;85.88;9.80;;;4.10;99.90;;;;;;6186244;23;20502;-78
2022/01/12 11:31:00;;;;;;;44.53;8.27;;;4.20;99.90;;;;;;6186001;23;20013;-79
2022/01/12 11:33:32;;;;;;;38.05;8.70;;;4.30;99.90;;;;;;6160962;23;20009;-79
2022/01/12 11:36:14;;;;;;;39.97;8.65;;;4.40;99.90;;;;;;6186907;23;20048;-79
2022/01/12 11:38:40;;;;;;;43.08;8.05;;;4.40;99.90;;;;;;6160985;23;20428;-78
2022/01/12 11:41:13;;;;;;;62.17;9.45;;;4.60;99.90;;;;;;6186099;23;20016;-78
2022/01/12 11:43:48;;;;;;;44.63;8.02;;;4.60;99.90;;;;;;6186676;23;20468;-79
2022/01/12 11:46:13;;;;;;;;;;;4.90;99.90;;;;;;6185961;23;20012;-79
2022/01/12 11:48:49;;;;;;;37.60;9.73;;;4.80;99.90;;;;;;6186145;23;19912;-79
2022/01/12 11:51:33;;;;;;;48.42;9.13;;;4.90;99.90;;;;;;6161130;23;20009;-79
2022/01/12 11:54:08;;;;;;;55.08;9.45;;;4.80;99.90;;;;;;6160372;23;20024;-79
2022/01/12 11:56:49;;;;;;;58.85;10.23;;;4.80;99.90;;;;;;6161810;23;20020;-79
2022/01/12 11:59:15;;;;;;;78.55;10.82;;;4.80;99.90;;;;;;6161398;23;20036;-79
2022/01/12 12:01:49;;;;;;;62.17;10.38;;;4.80;99.90;;;;;;6161095;23;20020;-77
2022/01/12 12:04:24;;;;;;;58.42;10.00;;;4.80;99.90;;;;;;6185291;23;20080;-78
2022/01/12 12:07:04;;;;;;;65.57;11.32;;;4.90;99.90;;;;;;6160919;23;20048;-77
2022/01/12 12:09:52;;;;;;;64.50;12.00;;;5.00;99.90;;;;;;6161100;23;20131;-78
2022/01/12 12:12:21;;;;;;;51.60;11.57;;;5.10;99.90;;;;;;6185715;23;20047;-79
2022/01/12 12:14:54;;;;;;;51.88;11.60;;;5.10;99.90;;;;;;6185363;23;20019;-77
2022/01/12 12:17:25;;;;;;;50.08;11.80;;;5.10;99.90;;;;;;6185573;23;20016;-76
2022/01/12 12:19:52;;;;;;;41.25;12.27;;;5.30;99.90;;;;;;6185164;23;20035;-78
2022/01/12 12:22:20;;;;;;;60.45;13.25;;;5.20;99.90;;;;;;6184872;23;20337;-77
2022/01/12 12:24:52;;;;;;;49.83;13.35;;;5.30;99.90;;;;;;6185531;23;20325;-77
2022/01/12 12:27:20;;;;;;;57.03;12.43;;;5.30;99.90;;;;;;6160627;23;20357;-79
2022/01/12 12:29:48;;;;;;;58.70;14.20;;;5.30;99.90;;;;;;6185415;23;20012;-79
2022/01/12 12:32:15;;;;;;;37.97;12.25;;;5.40;99.90;;;;;;6183107;23;20009;-78
2022/01/12 12:34:58;;;;;;;54.40;13.63;;;5.40;99.90;;;;;;6183852;23;20016;-84
2022/01/12 12:37:32;;;;;;;57.15;14.50;;;5.70;99.90;;;;;;6161710;23;20044;-78
2022/01/12 12:39:58;;;;;;;50.15;14.48;;;5.60;99.90;;;;;;6160233;23;20025;-78
2022/01/12 12:42:23;;;;;;;77.00;15.13;;;5.60;99.90;;;;;;6186823;23;20016;-79
2022/01/12 12:45:02;;;;;;;55.20;14.02;;;5.60;99.90;;;;;;6186064;23;20032;-79
2022/01/12 12:47:28;;;;;;;67.93;14.88;;;5.60;99.90;;;;;;6161774;23;20309;-78
2022/01/12 12:49:56;;;;;;;61.40;14.82;;;5.70;99.90;;;;;;6161535;23;20012;-78
2022/01/12 12:52:31;;;;;;;63.00;14.13;;;5.60;99.90;;;;;;6161674;23;20019;-78
2022/01/12 12:55:00;;;;;;;52.25;15.20;;;5.60;99.90;;;;;;6160015;23;20012;-79
2022/01/12 12:57:27;;;;;;;65.18;15.75;;;5.70;99.90;;;;;;6187503;23;20008;-78
2022/01/12 13:00:13;;;;;;;53.30;14.38;;;5.70;99.90;;;;;;6188011;23;20047;-79
2022/01/12 13:02:42;;;;;;;49.50;14.18;;;5.70;99.90;;;;;;6163071;23;20025;-78
2022/01/12 13:05:12;;;;;;;52.17;13.52;;;5.80;99.90;;;;;;6188557;23;20017;-78
2022/01/12 13:07:40;;;;;;;48.75;13.52;;;5.80;99.90;;;;;;6187941;23;20047;-79
2022/01/12 13:13:31;;;;;;;42.35;13.23;;;5.70;99.90;;;;;;6188879;23;20100;-79
2022/01/12 13:15:58;;;;;;;41.63;13.55;;;5.70;99.90;;;;;;6186414;23;20015;-77
2022/01/12 13:18:24;;;;;;;48.83;13.93;;;5.70;99.90;;;;;;6185406;23;20079;-77
2022/01/12 13:21:07;;;;;;;42.92;12.43;;;5.60;99.90;;;;;;6185188;23;20017;-77
2022/01/12 13:23:39;;;;;;;50.75;13.90;;;5.60;99.90;;;;;;6185644;23;20008;-77
2022/01/12 13:26:06;;;;;;;48.42;13.57;;;5.60;99.90;;;;;;6185416;23;20017;-77
2022/01/12 13:28:33;;;;;;;49.95;13.07;;;5.70;99.90;;;;;;6185870;23;20116;-77
2022/01/12 13:31:01;;;;;;;49.92;13.88;;;5.60;99.90;;;;;;6185515;23;20008;-76
2022/01/12 13:33:27;;;;;;;50.58;13.50;;;5.60;99.90;;;;;;6186264;23;20013;-77
2022/01/12 13:35:53;;;;;;;46.22;13.75;;;5.60;99.90;;;;;;6185703;23;20020;-78
2022/01/12 13:38:34;;;;;;;50.33;13.65;;;5.60;99.90;;;;;;6160256;23;20026;-79
2022/01/12 13:41:19;;;;;;;44.15;12.25;;;5.70;99.90;;;;;;6184480;23;20020;-79
2022/01/12 13:43:49;;;;;;;29.88;11.77;;;5.60;99.90;;;;;;6187469;23;20087;-78
2022/01/12 13:46:17;;;;;;;38.90;11.13;;;5.60;99.90;;;;;;6163111;23;20017;-78
2022/01/12 13:49:07;;;;;;;32.72;11.48;;;5.60;99.90;;;;;;6187560;23;20441;-79
2022/01/12 13:51:37;;;;;;;33.72;11.25;;;5.50;99.90;;;;;;6162514;23;20098;-78
2022/01/12 13:54:06;;;;;;;32.42;11.40;;;5.50;99.90;;;;;;6161837;23;20413;-79
2022/01/12 13:56:37;;;;;;;30.33;11.07;;;5.40;99.90;;;;;;6187979;23;20021;-79
2022/01/12 13:59:04;;;;;;;27.95;9.27;;;5.40;99.90;;;;;;6161787;23;20440;-80
2022/01/12 14:01:35;;;;;;;35.67;10.45;;;5.40;99.90;;;;;;6163070;23;20349;-76
2022/01/12 14:04:37;;;;;;;35.75;11.18;;;5.40;99.90;;;;;;6162078;23;20098;-76
2022/01/12 14:06:54;;;;;;;35.05;11.20;;;5.40;99.90;;;;;;6180900;23;20060;-78
2022/01/12 14:11:54;;;;;;;35.50;11.38;;;5.30;99.90;;;;;;6188055;23;20016;-78
2022/01/12 14:14:21;;;;;;;35.30;11.02;;;5.40;99.90;;;;;;6187482;23;20052;-77
2022/01/12 14:16:47;;;;;;;35.58;11.15;;;5.20;99.90;;;;;;6188475;23;20012;-79
2022/01/12 14:19:14;;;;;;;43.25;13.95;;;5.30;99.90;;;;;;6187753;23;20313;-79